createdAt,value
2022-12-25T00:01:07.815Z,24.58
2022-12-25T00:03:34.855Z,24.30
2022-12-25T00:08:28.425Z,23.85
2022-12-25T00:10:59.997Z,23.60
2022-12-25T00:13:27.197Z,22.42
2022-12-25T00:15:54.531Z,22.17
2022-12-25T00:18:21.749Z,24.10
2022-12-25T00:20:59.953Z,23.83
2022-12-25T00:23:27.539Z,23.30
2022-12-25T00:25:54.942Z,22.20
2022-12-25T00:28:23.346Z,22.00
2022-12-25T00:30:51.090Z,21.10
2022-12-25T00:33:18.616Z,21.73
2022-12-25T00:36:00.282Z,18.60
2022-12-25T00:38:27.449Z,21.13
2022-12-25T00:43:21.931Z,21.05
2022-12-25T00:46:01.803Z,20.02
2022-12-25T00:48:29.775Z,20.27
2022-12-25T00:50:58.811Z,21.08
2022-12-25T00:53:26.711Z,21.35
2022-12-25T00:55:54.002Z,20.95
2022-12-25T00:58:21.019Z,18.55
2022-12-25T01:03:17.161Z,19.08
2022-12-25T01:05:45.492Z,19.48
2022-12-25T01:08:12.334Z,19.45
2022-12-25T01:10:39.173Z,18.23
2022-12-25T01:13:05.930Z,19.05
2022-12-25T01:15:32.757Z,18.70
2022-12-25T01:18:02.746Z,19.55
2022-12-25T01:20:35.568Z,18.67
2022-12-25T01:25:29.020Z,17.88
2022-12-25T01:27:55.765Z,18.52
2022-12-25T01:30:22.541Z,18.55
2022-12-25T01:32:49.287Z,18.88
2022-12-25T01:35:16.222Z,19.48
2022-12-25T01:37:42.945Z,19.15
2022-12-25T01:40:10.138Z,19.17
2022-12-25T01:42:37.081Z,19.35
2022-12-25T01:45:43.802Z,18.77
2022-12-25T01:48:16.171Z,18.15
2022-12-25T01:50:47.115Z,17.92
2022-12-25T01:53:14.066Z,17.38
2022-12-25T01:55:42.317Z,18.30
2022-12-25T01:58:10.079Z,16.83
2022-12-25T02:00:36.928Z,18.35
2022-12-25T02:03:04.694Z,18.88
2022-12-25T02:05:33.823Z,18.33
2022-12-25T02:08:07.876Z,17.02
2022-12-25T02:10:34.805Z,17.58
2022-12-25T02:13:02.455Z,17.30
2022-12-25T02:15:50.690Z,17.38
2022-12-25T02:18:33.562Z,16.85
2022-12-25T02:21:14.693Z,16.48
2022-12-25T02:24:01.144Z,16.63
2022-12-25T02:27:07.152Z,17.33
2022-12-25T02:29:42.559Z,16.73
2022-12-25T02:32:27.110Z,16.45
2022-12-25T02:35:11.739Z,14.35
2022-12-25T02:38:04.822Z,16.23
2022-12-25T02:40:50.189Z,15.77
2022-12-25T02:43:45.655Z,14.18
2022-12-25T02:46:35.030Z,16.35
2022-12-25T02:49:28.492Z,15.20
2022-12-25T02:52:17.888Z,15.18
2022-12-25T02:55:11.132Z,15.85
2022-12-25T02:58:02.712Z,15.50
2022-12-25T03:00:51.764Z,15.60
2022-12-25T03:03:38.418Z,16.25
2022-12-25T03:06:26.142Z,14.98
2022-12-25T03:09:15.451Z,13.27
2022-12-25T03:11:44.243Z,14.23
2022-12-25T03:14:29.344Z,14.32
2022-12-25T03:16:58.853Z,14.23
2022-12-25T03:19:49.389Z,13.98
2022-12-25T03:22:42.115Z,14.02
2022-12-25T03:25:28.062Z,14.43
2022-12-25T03:27:56.604Z,13.95
2022-12-25T03:30:47.403Z,14.30
2022-12-25T03:34:10.008Z,14.05
2022-12-25T03:37:11.192Z,13.32
2022-12-25T03:40:38.171Z,14.88
2022-12-25T03:43:43.285Z,13.55
2022-12-25T03:46:33.745Z,13.52
2022-12-25T03:49:38.960Z,14.05
2022-12-25T03:55:13.809Z,13.40
2022-12-25T03:57:59.287Z,13.18
2022-12-25T04:00:44.698Z,13.80
2022-12-25T04:03:30.086Z,11.48
2022-12-25T04:06:15.258Z,12.65
2022-12-25T04:09:00.874Z,13.70
2022-12-25T04:11:46.475Z,13.07
2022-12-25T04:14:31.698Z,13.73
2022-12-25T04:17:17.003Z,13.20
2022-12-25T04:20:02.298Z,13.52
2022-12-25T04:22:47.783Z,13.82
2022-12-25T04:25:33.186Z,13.35
2022-12-25T04:28:22.271Z,13.07
2022-12-25T04:31:07.773Z,12.80
2022-12-25T04:33:53.029Z,12.57
2022-12-25T04:36:19.798Z,12.90
2022-12-25T04:38:46.553Z,12.55
2022-12-25T04:41:14.180Z,12.60
2022-12-25T04:43:41.150Z,14.02
2022-12-25T04:46:07.968Z,13.65
2022-12-25T04:48:36.542Z,12.65
2022-12-25T04:51:16.737Z,12.77
2022-12-25T04:53:44.164Z,12.07
2022-12-25T04:56:11.252Z,12.02
2022-12-25T04:58:38.332Z,12.95
2022-12-25T05:01:05.244Z,12.65
2022-12-25T05:03:32.751Z,12.82
2022-12-25T05:06:00.026Z,13.25
2022-12-25T05:08:28.346Z,12.35
2022-12-25T05:10:55.150Z,13.02
2022-12-25T05:13:21.979Z,12.25
2022-12-25T05:15:48.727Z,11.70
2022-12-25T05:18:15.761Z,12.68
2022-12-25T05:20:42.549Z,11.65
2022-12-25T05:23:12.348Z,12.05
2022-12-25T05:25:40.520Z,11.98
2022-12-25T05:28:07.595Z,11.20
2022-12-25T05:33:02.355Z,12.10
2022-12-25T05:35:29.195Z,11.27
2022-12-25T05:37:56.148Z,11.27
2022-12-25T05:40:23.077Z,11.73
2022-12-25T05:42:49.788Z,11.10
2022-12-25T05:45:16.653Z,10.88
2022-12-25T05:47:43.488Z,11.10
2022-12-25T05:50:10.279Z,12.45
2022-12-25T05:52:37.042Z,12.75
2022-12-25T05:55:04.145Z,11.45
2022-12-25T05:59:58.589Z,10.65
2022-12-25T06:02:26.185Z,11.38
2022-12-25T06:04:53.170Z,12.63
2022-12-25T06:07:19.911Z,11.73
2022-12-25T06:09:46.676Z,12.40
2022-12-25T06:12:13.489Z,12.73
2022-12-25T06:14:40.233Z,12.57
2022-12-25T06:17:06.951Z,11.57
2022-12-25T06:19:33.716Z,11.43
2022-12-25T06:22:00.485Z,12.00
2022-12-25T06:24:27.330Z,12.75
2022-12-25T06:26:54.041Z,11.50
2022-12-25T06:29:20.819Z,12.43
2022-12-25T06:31:47.706Z,11.38
2022-12-25T06:34:16.473Z,12.20
2022-12-25T06:36:43.469Z,12.45
2022-12-25T06:39:10.733Z,12.18
2022-12-25T06:41:38.050Z,10.77
2022-12-25T06:44:04.956Z,11.77
2022-12-25T06:46:31.737Z,12.82
2022-12-25T06:48:59.399Z,11.75
2022-12-25T06:51:31.225Z,11.80
2022-12-25T06:53:59.291Z,11.73
2022-12-25T06:56:28.073Z,11.45
2022-12-25T06:59:03.055Z,12.02
2022-12-25T07:01:48.353Z,11.20
2022-12-25T07:04:27.332Z,11.65
2022-12-25T07:06:54.231Z,12.38
2022-12-25T07:09:21.004Z,10.98
2022-12-25T07:11:47.725Z,10.95
2022-12-25T07:14:23.823Z,10.85
2022-12-25T07:16:51.406Z,11.95
2022-12-25T07:19:19.188Z,11.75
2022-12-25T07:21:46.306Z,12.02
2022-12-25T07:26:44.169Z,12.18
2022-12-25T07:29:10.957Z,12.50
2022-12-25T07:31:37.764Z,12.23
2022-12-25T07:34:04.768Z,12.30
2022-12-25T07:36:31.641Z,11.93
2022-12-25T07:38:58.498Z,11.50
2022-12-25T07:41:25.315Z,11.95
2022-12-25T07:43:53.817Z,12.05
2022-12-25T07:46:22.165Z,11.57
2022-12-25T07:48:49.273Z,11.98
2022-12-25T07:53:43.433Z,11.88
2022-12-25T07:58:38.466Z,12.85
2022-12-25T08:01:12.088Z,13.05
2022-12-25T08:03:39.297Z,12.90
2022-12-25T08:06:08.429Z,12.27
2022-12-25T08:08:36.728Z,12.52
2022-12-25T08:11:04.068Z,12.15
2022-12-25T08:13:32.064Z,12.32
2022-12-25T08:16:00.515Z,12.05
2022-12-25T08:18:30.284Z,12.60
2022-12-25T08:21:01.521Z,11.80
2022-12-25T08:23:28.302Z,12.07
2022-12-25T08:26:04.637Z,12.52
2022-12-25T08:28:33.583Z,12.20
2022-12-25T08:31:05.575Z,11.10
2022-12-25T08:33:32.368Z,11.57
2022-12-25T08:36:06.605Z,13.27
2022-12-25T08:38:33.470Z,11.43
2022-12-25T08:41:00.167Z,13.90
2022-12-25T08:43:26.890Z,12.35
2022-12-25T08:45:53.673Z,12.10
2022-12-25T08:48:20.532Z,12.73
2022-12-25T08:50:49.546Z,12.00
2022-12-25T08:53:17.446Z,12.43
2022-12-25T08:55:44.425Z,12.00
2022-12-25T08:58:11.561Z,12.98
2022-12-25T09:00:38.299Z,11.38
2022-12-25T09:03:05.367Z,11.90
2022-12-25T09:05:35.348Z,12.02
2022-12-25T09:08:02.181Z,11.70
2022-12-25T09:10:29.342Z,12.45
2022-12-25T09:12:56.179Z,12.98
2022-12-25T09:15:23.014Z,11.50
2022-12-25T09:17:49.896Z,13.00
2022-12-25T09:20:16.759Z,11.88
2022-12-25T09:22:43.548Z,13.20
2022-12-25T09:25:10.604Z,13.23
2022-12-25T09:30:05.783Z,11.60
2022-12-25T09:32:32.621Z,20.85
2022-12-25T09:34:59.377Z,13.43
2022-12-25T09:37:26.198Z,12.55
2022-12-25T09:39:52.999Z,12.38
2022-12-25T09:42:23.907Z,12.73
2022-12-25T09:44:57.243Z,13.05
2022-12-25T09:50:14.049Z,13.23
2022-12-25T09:52:55.796Z,12.95
2022-12-25T09:55:25.364Z,13.38
2022-12-25T09:57:57.930Z,14.40
2022-12-25T10:00:28.973Z,13.68
2022-12-25T10:03:37.974Z,13.77
2022-12-25T10:06:33.252Z,14.30
2022-12-25T10:09:00.070Z,14.60
2022-12-25T10:11:48.238Z,13.93
2022-12-25T10:14:41.594Z,13.32
2022-12-25T10:17:31.525Z,14.77
2022-12-25T10:20:38.915Z,14.60
2022-12-25T10:23:13.961Z,14.00
2022-12-25T10:25:41.443Z,13.55
2022-12-25T10:28:15.267Z,13.30
2022-12-25T10:30:45.522Z,14.55
2022-12-25T10:33:17.075Z,14.18
2022-12-25T10:35:44.817Z,14.55
2022-12-25T10:38:17.817Z,13.25
2022-12-25T10:41:00.140Z,14.02
2022-12-25T10:43:42.627Z,14.10
2022-12-25T10:46:14.558Z,14.23
2022-12-25T10:48:51.558Z,14.23
2022-12-25T10:51:51.148Z,14.38
2022-12-25T10:54:25.554Z,13.35
2022-12-25T10:57:16.183Z,13.90
2022-12-25T10:59:47.083Z,13.40
2022-12-25T11:02:29.335Z,13.13
2022-12-25T11:05:06.060Z,13.65
2022-12-25T11:07:34.984Z,13.38
2022-12-25T11:10:15.193Z,12.93
2022-12-25T11:12:44.566Z,12.18
2022-12-25T11:15:29.782Z,13.30
2022-12-25T11:17:56.523Z,13.23
2022-12-25T11:20:24.219Z,13.20
2022-12-25T11:22:51.179Z,13.27
2022-12-25T11:25:26.914Z,13.27
2022-12-25T11:28:02.024Z,13.52
2022-12-25T11:30:33.817Z,12.57
2022-12-25T11:33:11.481Z,13.73
2022-12-25T11:35:50.315Z,12.00
2022-12-25T11:38:17.078Z,13.07
2022-12-25T11:40:51.464Z,13.05
2022-12-25T11:43:23.205Z,12.77
2022-12-25T11:45:59.793Z,13.25
2022-12-25T11:48:31.798Z,13.02
2022-12-25T11:51:02.257Z,13.15
2022-12-25T11:53:39.735Z,13.48
2022-12-25T11:56:13.314Z,14.07
2022-12-25T11:58:54.884Z,14.70
2022-12-25T12:01:38.875Z,13.43
2022-12-25T12:04:29.062Z,13.95
2022-12-25T12:07:08.948Z,13.25
2022-12-25T12:09:44.191Z,12.32
2022-12-25T12:12:20.560Z,12.25
2022-12-25T12:15:09.247Z,13.32
2022-12-25T12:17:36.007Z,12.68
2022-12-25T12:22:53.055Z,12.05
2022-12-25T12:25:20.608Z,11.82
2022-12-25T12:27:56.330Z,11.70
2022-12-25T12:30:35.530Z,11.88
2022-12-25T12:33:05.219Z,11.27
2022-12-25T12:35:38.763Z,11.75
2022-12-25T12:38:19.108Z,12.68
2022-12-25T12:40:53.880Z,12.32
2022-12-25T12:43:35.489Z,12.65
2022-12-25T12:46:17.075Z,12.75
2022-12-25T12:48:46.357Z,11.85
2022-12-25T12:51:27.221Z,11.63
2022-12-25T12:54:25.149Z,11.27
2022-12-25T12:57:29.380Z,11.43
2022-12-25T12:59:59.931Z,10.88
2022-12-25T13:03:02.164Z,12.05
2022-12-25T13:05:49.936Z,10.30
2022-12-25T13:08:47.320Z,11.43
2022-12-25T13:11:16.940Z,11.43
2022-12-25T13:13:45.364Z,12.13
2022-12-25T13:16:33.972Z,12.32
2022-12-25T13:19:06.081Z,11.80
2022-12-25T13:21:34.250Z,12.85
2022-12-25T13:24:10.587Z,13.45
2022-12-25T13:26:39.360Z,13.20
2022-12-25T13:29:11.244Z,12.82
2022-12-25T13:31:41.464Z,14.00
2022-12-25T13:34:28.287Z,13.63
2022-12-25T13:36:56.272Z,13.30
2022-12-25T13:39:25.082Z,14.07
2022-12-25T13:42:05.796Z,13.55
2022-12-25T13:44:57.114Z,13.65
2022-12-25T13:47:25.284Z,12.88
2022-12-25T13:49:55.113Z,13.73
2022-12-25T13:52:31.758Z,14.07
2022-12-25T13:55:04.667Z,13.18
2022-12-25T13:57:36.062Z,13.07
2022-12-25T14:00:04.805Z,14.13
2022-12-25T14:02:36.578Z,14.38
2022-12-25T14:05:21.668Z,13.65
2022-12-25T14:07:56.693Z,14.32
2022-12-25T14:10:26.411Z,13.27
2022-12-25T14:12:56.028Z,13.43
2022-12-25T14:15:24.016Z,14.05
2022-12-25T14:17:51.862Z,14.30
2022-12-25T14:20:40.045Z,14.52
2022-12-25T14:23:07.406Z,14.20
2022-12-25T14:25:41.219Z,13.43
2022-12-25T14:28:17.781Z,13.77
2022-12-25T14:30:45.171Z,13.07
2022-12-25T14:33:23.967Z,14.25
2022-12-25T14:35:52.249Z,13.48
2022-12-25T14:38:29.274Z,14.98
2022-12-25T14:41:03.438Z,14.45
2022-12-25T14:43:31.511Z,14.65
2022-12-25T14:46:01.633Z,14.68
2022-12-25T14:48:31.111Z,14.75
2022-12-25T14:51:24.176Z,14.55
2022-12-25T14:53:57.041Z,14.15
2022-12-25T14:56:26.057Z,14.38
2022-12-25T14:58:58.139Z,14.50
2022-12-25T15:01:37.049Z,14.35
2022-12-25T15:04:12.014Z,13.88
2022-12-25T15:06:57.621Z,14.13
2022-12-25T15:09:24.697Z,14.32
2022-12-25T15:11:55.419Z,15.45
2022-12-25T15:14:23.560Z,15.13
2022-12-25T15:16:57.975Z,16.40
2022-12-25T15:19:36.916Z,16.05
2022-12-25T15:22:04.813Z,15.15
2022-12-25T15:24:31.638Z,14.77
2022-12-25T15:30:07.283Z,16.02
2022-12-25T15:32:18.257Z,14.55
2022-12-25T15:34:47.053Z,15.48
2022-12-25T15:37:14.667Z,15.45
2022-12-25T15:39:41.660Z,15.23
2022-12-25T15:42:16.918Z,16.48
2022-12-25T15:44:44.673Z,16.35
2022-12-25T15:47:13.296Z,15.70
2022-12-25T15:49:40.247Z,14.20
2022-12-25T15:52:12.302Z,16.20
2022-12-25T15:54:39.011Z,15.70
2022-12-25T15:57:14.083Z,16.13
2022-12-25T15:59:40.775Z,15.27
2022-12-25T16:02:16.386Z,16.40
2022-12-25T16:04:43.455Z,16.65
2022-12-25T16:07:19.160Z,17.35
2022-12-25T16:09:46.384Z,16.70
2022-12-25T16:12:13.470Z,16.27
2022-12-25T16:14:40.464Z,17.08
2022-12-25T16:17:07.756Z,16.65
2022-12-25T16:19:34.560Z,16.88
2022-12-25T16:22:01.284Z,17.42
2022-12-25T16:24:28.014Z,16.45
2022-12-25T16:26:54.818Z,16.48
2022-12-25T16:31:48.403Z,16.60
2022-12-25T16:34:15.118Z,17.63
2022-12-25T16:36:41.855Z,17.15
2022-12-25T16:39:08.699Z,16.25
2022-12-25T16:44:09.226Z,17.02
2022-12-25T16:46:37.618Z,17.23
2022-12-25T16:49:04.724Z,17.67
2022-12-25T16:51:31.722Z,18.10
2022-12-25T16:53:58.542Z,16.98
2022-12-25T16:58:58.127Z,17.88
2022-12-25T17:01:25.919Z,17.55
2022-12-25T17:03:52.914Z,17.90
2022-12-25T17:06:25.714Z,17.42
2022-12-25T17:08:58.649Z,18.48
2022-12-25T17:11:30.229Z,18.20
2022-12-25T17:14:02.658Z,18.55
2022-12-25T17:16:32.554Z,18.85
2022-12-25T17:19:05.028Z,18.20
2022-12-25T17:21:35.132Z,19.25
2022-12-25T17:24:04.330Z,19.33
2022-12-25T17:26:34.356Z,19.05
2022-12-25T17:29:01.469Z,18.77
2022-12-25T17:31:29.185Z,19.73
2022-12-25T17:33:56.145Z,18.20
2022-12-25T17:36:23.405Z,19.05
2022-12-25T17:38:50.317Z,19.80
2022-12-25T17:41:18.475Z,20.83
2022-12-25T17:43:46.051Z,19.38
2022-12-25T17:46:22.302Z,20.13
2022-12-25T17:48:50.247Z,21.10
2022-12-25T17:51:21.303Z,21.55
2022-12-25T17:53:51.140Z,21.85
2022-12-25T17:56:19.214Z,20.15
2022-12-25T17:58:54.327Z,21.17
2022-12-25T18:01:23.602Z,21.77
2022-12-25T18:03:51.632Z,20.92
2022-12-25T18:06:22.072Z,22.35
2022-12-25T18:08:49.208Z,22.27
2022-12-25T18:11:18.985Z,21.73
2022-12-25T18:13:49.880Z,20.48
2022-12-25T18:16:18.187Z,22.77
2022-12-25T18:18:51.504Z,21.83
2022-12-25T18:21:20.656Z,23.02
2022-12-25T18:23:48.317Z,22.00
2022-12-25T18:26:15.510Z,21.98
2022-12-25T18:28:43.935Z,21.83
2022-12-25T18:31:14.806Z,22.25
2022-12-25T18:33:42.614Z,21.27
2022-12-25T18:36:11.842Z,20.70
2022-12-25T18:38:38.640Z,21.27
2022-12-25T18:41:07.057Z,20.85
2022-12-25T18:43:54.323Z,21.90
2022-12-25T18:46:22.459Z,21.35
2022-12-25T18:48:49.443Z,22.90
2022-12-25T18:51:16.504Z,21.38
2022-12-25T18:53:43.383Z,22.08
2022-12-25T18:58:38.375Z,21.00
2022-12-25T19:01:22.684Z,21.27
2022-12-25T19:03:51.183Z,21.05
2022-12-25T19:06:28.425Z,20.30
2022-12-25T19:08:56.316Z,20.60
2022-12-25T19:11:23.323Z,20.75
2022-12-25T19:13:50.322Z,19.00
2022-12-25T19:16:17.766Z,20.20
2022-12-25T19:18:44.656Z,19.50
2022-12-25T19:23:38.866Z,18.77
2022-12-25T19:26:07.908Z,19.75
2022-12-25T19:28:35.232Z,18.88
2022-12-25T19:31:02.811Z,18.80
2022-12-25T19:33:31.755Z,17.90
2022-12-25T19:36:02.533Z,17.23
2022-12-25T19:38:29.524Z,17.23
2022-12-25T19:43:34.563Z,16.88
2022-12-25T19:46:01.942Z,17.02
2022-12-25T19:48:29.658Z,17.00
2022-12-25T19:50:56.949Z,17.45
2022-12-25T19:53:23.982Z,16.15
2022-12-25T19:55:54.689Z,17.50
2022-12-25T19:58:23.044Z,17.10
2022-12-25T20:01:11.774Z,17.00
2022-12-25T20:03:45.776Z,18.13
2022-12-25T20:06:20.498Z,17.48
2022-12-25T20:08:49.060Z,16.27
2022-12-25T20:11:16.970Z,15.50
2022-12-25T20:13:44.250Z,17.17
2022-12-25T20:16:11.345Z,16.85
2022-12-25T20:18:39.072Z,17.75
2022-12-25T20:21:10.661Z,16.77
2022-12-25T20:23:37.526Z,16.35
2022-12-25T20:28:34.125Z,16.08
2022-12-25T20:31:09.915Z,17.67
2022-12-25T20:33:37.587Z,17.67
2022-12-25T20:36:05.202Z,17.40
2022-12-25T20:38:32.253Z,15.38
2022-12-25T20:41:26.282Z,15.82
2022-12-25T20:43:48.352Z,15.77
2022-12-25T20:46:15.386Z,16.10
2022-12-25T20:48:42.472Z,15.25
2022-12-25T20:51:20.986Z,15.13
2022-12-25T20:53:48.679Z,14.15
2022-12-25T20:56:16.980Z,16.20
2022-12-25T20:58:43.777Z,15.80
2022-12-25T21:03:38.723Z,15.07
2022-12-25T21:06:06.249Z,15.63
2022-12-25T21:08:33.155Z,15.52
2022-12-25T21:13:37.328Z,16.60
2022-12-25T21:16:10.833Z,15.48
2022-12-25T21:18:37.945Z,16.15
2022-12-25T21:21:07.747Z,16.70
2022-12-25T21:23:36.849Z,14.18
2022-12-25T21:26:19.178Z,16.40
2022-12-25T21:28:51.116Z,16.08
2022-12-25T21:31:19.113Z,15.60
2022-12-25T21:33:52.485Z,14.48
2022-12-25T21:36:32.090Z,15.80
2022-12-25T21:39:05.253Z,14.63
2022-12-25T21:41:33.085Z,15.13
2022-12-25T21:44:00.569Z,14.20
2022-12-25T21:46:28.114Z,14.75
2022-12-25T21:48:55.282Z,14.90
2022-12-25T21:51:49.907Z,15.00
2022-12-25T21:54:18.814Z,14.20
2022-12-25T21:56:47.340Z,14.32
2022-12-25T21:59:17.327Z,15.27
2022-12-25T22:01:45.279Z,14.63
2022-12-25T22:04:13.603Z,14.10
2022-12-25T22:06:58.809Z,15.80
2022-12-25T22:09:25.829Z,15.93
2022-12-25T22:12:11.232Z,14.70
2022-12-25T22:14:53.712Z,16.05
2022-12-25T22:17:43.133Z,14.13
2022-12-25T22:20:16.024Z,16.20
2022-12-25T22:22:43.004Z,15.57
2022-12-25T22:27:38.973Z,15.90
2022-12-25T22:30:08.179Z,15.90
2022-12-25T22:32:35.001Z,16.55
2022-12-25T22:35:02.002Z,15.80
2022-12-25T22:37:28.745Z,15.88
2022-12-25T22:39:55.495Z,15.90
2022-12-25T22:42:22.338Z,15.80
2022-12-25T22:44:49.178Z,14.02
2022-12-25T22:47:15.931Z,16.15
2022-12-25T22:49:42.736Z,16.55
2022-12-25T22:52:09.924Z,16.45
2022-12-25T22:54:37.337Z,16.90
2022-12-25T22:57:04.727Z,15.52
2022-12-25T22:59:32.996Z,15.23
2022-12-25T23:02:00.916Z,16.00
2022-12-25T23:04:28.573Z,16.83
2022-12-25T23:06:55.347Z,16.88
2022-12-25T23:09:27.648Z,17.23
2022-12-25T23:11:56.448Z,18.70
2022-12-25T23:14:39.232Z,18.20
2022-12-25T23:17:28.542Z,18.17
2022-12-25T23:20:15.791Z,18.90
2022-12-25T23:23:01.625Z,18.00
2022-12-25T23:25:47.227Z,18.27
2022-12-25T23:28:14.094Z,17.27
2022-12-25T23:33:07.625Z,17.75
2022-12-25T23:35:34.383Z,16.88
2022-12-25T23:38:01.168Z,17.35
2022-12-25T23:40:27.902Z,18.00
2022-12-25T23:42:54.721Z,19.52
2022-12-25T23:45:21.464Z,20.33
2022-12-25T23:47:48.397Z,19.08
2022-12-25T23:52:41.998Z,18.52
2022-12-25T23:55:08.965Z,19.83
